Time;durP1;ratioP1;P1;durP2;ratioP2;P2;SDS_P1;SDS_P2;PMS_P1;PMS_P2;Temp;Humidity;BMP_temperature;BMP_pressure;BME280_temperature;BME280_humidity;BME280_pressure;Samples;Min_cycle;Max_cycle;Signal;HPM_P1;HPM_P2
2021/03/02 00:00:26;;;;;;;68.53;33.08;;;;;;;7.94;100.00;102885.25;5052272;28;20042;-67
2021/03/02 00:02:52;;;;;;;67.90;32.13;;;;;;;7.91;100.00;102893.75;5050772;28;20085;-68
2021/03/02 00:05:17;;;;;;;70.80;32.92;;;;;;;7.90;100.00;102886.63;5052121;28;20544;-67
2021/03/02 00:07:43;;;;;;;65.07;31.00;;;;;;;7.89;100.00;102887.66;5052078;28;20064;-67
2021/03/02 00:10:11;;;;;;;65.75;30.48;;;;;;;7.88;100.00;102876.94;5052080;28;20076;-68
2021/03/02 00:12:38;;;;;;;69.82;30.92;;;;;;;7.85;100.00;102880.88;5051931;28;20433;-67
2021/03/02 00:15:05;;;;;;;67.35;34.28;;;;;;;7.83;100.00;102883.75;5051866;28;20394;-67
2021/03/02 00:17:35;;;;;;;60.53;29.05;;;;;;;7.80;100.00;102877.81;5052005;28;20818;-68
2021/03/02 00:20:05;;;;;;;64.90;30.25;;;;;;;7.78;100.00;102871.69;5052090;28;20165;-67
2021/03/02 00:22:52;;;;;;;64.07;30.10;;;;;;;7.76;100.00;102871.00;5051777;28;20601;-67
2021/03/02 00:25:18;;;;;;;62.80;30.67;;;;;;;7.75;100.00;102880.19;5051795;28;20029;-68
2021/03/02 00:27:44;;;;;;;61.22;31.58;;;;;;;7.73;100.00;102883.09;5051944;28;20066;-67
2021/03/02 00:30:10;;;;;;;63.92;31.88;;;;;;;7.73;100.00;102879.53;5051680;28;20036;-68
2021/03/02 00:32:39;;;;;;;65.93;32.08;;;;;;;7.73;100.00;102882.25;5050600;28;20041;-68
2021/03/02 00:35:06;;;;;;;63.20;32.85;;;;;;;7.73;100.00;102865.94;5051355;28;20057;-67
2021/03/02 00:37:31;;;;;;;64.78;33.80;;;;;;;7.71;100.00;102859.81;5051813;28;20479;-68
2021/03/02 00:39:57;;;;;;;70.40;33.88;;;;;;;7.71;100.00;102876.13;5059534;28;20055;-67
2021/03/02 00:42:23;;;;;;;69.00;35.28;;;;;;;7.71;100.00;102870.69;5049827;28;20049;-68
2021/03/02 00:44:48;;;;;;;75.15;37.83;;;;;;;7.70;100.00;102875.28;5051358;28;20487;-67
2021/03/02 00:47:14;;;;;;;74.93;38.53;;;;;;;7.69;100.00;102875.47;5051397;28;20041;-67
2021/03/02 00:49:39;;;;;;;77.13;38.85;;;;;;;7.68;100.00;102869.19;5051441;28;20048;-67
2021/03/02 00:52:05;;;;;;;80.53;40.10;;;;;;;7.68;100.00;102873.78;5049807;28;20090;-68
2021/03/02 00:54:31;;;;;;;78.97;40.75;;;;;;;7.67;100.00;102885.66;5051270;28;20045;-68
2021/03/02 00:56:56;;;;;;;82.03;41.80;;;;;;;7.64;100.00;102881.44;5051188;28;20043;-67
2021/03/02 00:59:22;;;;;;;87.93;43.92;;;;;;;7.63;100.00;102876.97;5050920;28;20036;-68
2021/03/02 01:01:48;;;;;;;85.70;43.03;;;;;;;7.63;100.00;102876.13;5050007;28;20048;-68
2021/03/02 01:04:13;;;;;;;88.00;43.65;;;;;;;7.63;100.00;102873.41;5051015;28;20044;-68
2021/03/02 01:06:39;;;;;;;85.18;44.33;;;;;;;7.61;100.00;102879.03;5051009;28;20041;-68
2021/03/02 01:09:09;;;;;;;86.97;44.33;;;;;;;7.60;100.00;102888.22;5051055;28;20049;-67
2021/03/02 01:11:34;;;;;;;87.07;45.03;;;;;;;7.59;100.00;102885.66;5051023;28;20067;-67
2021/03/02 01:14:00;;;;;;;99.25;46.45;;;;;;;7.55;100.00;102886.03;5049425;28;20072;-67
2021/03/02 01:16:26;;;;;;;87.43;43.13;;;;;;;7.56;100.00;102886.88;5049551;28;20625;-67
2021/03/02 01:18:52;;;;;;;90.93;43.28;;;;;;;7.53;100.00;102882.63;5050966;28;20041;-68
2021/03/02 01:21:17;;;;;;;93.47;45.42;;;;;;;7.52;100.00;102886.38;5050674;28;20084;-67
2021/03/02 01:23:43;;;;;;;93.45;45.05;;;;;;;7.50;100.00;102876.69;5050797;28;20037;-67
2021/03/02 01:26:08;;;;;;;93.15;47.53;;;;;;;7.48;100.00;102879.59;5049354;28;20044;-68
2021/03/02 01:28:34;;;;;;;101.38;45.08;;;;;;;7.47;100.00;102877.03;5050685;28;20072;-67
2021/03/02 01:31:00;;;;;;;96.75;47.33;;;;;;;7.45;100.00;102885.34;5050711;28;20128;-67
2021/03/02 01:33:25;;;;;;;96.65;46.40;;;;;;;7.44;100.00;102883.63;5050624;28;20509;-67
2021/03/02 01:35:51;;;;;;;93.47;47.50;;;;;;;7.41;100.00;102883.16;5050502;28;20058;-67
2021/03/02 01:38:17;;;;;;;99.35;48.90;;;;;;;7.39;100.00;102885.19;5050620;28;20438;-68
2021/03/02 01:40:42;;;;;;;95.97;47.13;;;;;;;7.37;100.00;102879.94;5051460;28;20391;-68
2021/03/02 01:43:08;;;;;;;101.78;48.67;;;;;;;7.35;100.00;102876.53;5070073;28;20498;-67
2021/03/02 01:45:36;;;;;;;101.28;48.38;;;;;;;7.33;100.00;102869.56;5070520;28;20471;-68
2021/03/02 01:48:02;;;;;;;102.32;46.45;;;;;;;7.30;100.00;102870.78;5070641;28;20040;-67
2021/03/02 01:50:27;;;;;;;100.07;47.35;;;;;;;7.27;100.00;102862.94;5052200;28;20041;-67
2021/03/02 01:52:53;;;;;;;103.38;49.00;;;;;;;7.24;100.00;102860.56;5070602;28;20037;-67
2021/03/02 01:55:19;;;;;;;104.75;48.65;;;;;;;7.22;100.00;102868.88;5070508;28;20044;-68
2021/03/02 01:57:45;;;;;;;101.90;47.67;;;;;;;7.20;100.00;102864.63;5070415;28;20133;-67
2021/03/02 02:00:13;;;;;;;102.10;46.92;;;;;;;7.19;100.00;102863.78;5052701;28;20089;-67
2021/03/02 02:02:50;;;;;;;102.65;49.85;;;;;;;7.18;100.00;102863.97;5070424;28;20044;-68
2021/03/02 02:05:18;;;;;;;98.78;46.60;;;;;;;7.16;100.00;102853.28;5070134;28;20475;-67
2021/03/02 02:07:52;;;;;;;102.22;47.30;;;;;;;7.12;100.00;102857.34;5070431;28;20051;-67
2021/03/02 02:10:47;;;;;;;100.10;47.83;;;;;;;7.13;100.00;102855.47;5070433;28;20041;-67
2021/03/02 02:13:25;;;;;;;101.10;47.27;;;;;;;7.12;100.00;102845.63;5045372;28;20143;-68
2021/03/02 02:15:55;;;;;;;100.30;46.85;;;;;;;7.11;100.00;102849.34;5070334;28;20092;-68
2021/03/02 02:18:27;;;;;;;100.75;48.10;;;;;;;7.10;100.00;102845.78;5070441;28;20036;-67
2021/03/02 02:21:05;;;;;;;103.10;46.90;;;;;;;7.11;100.00;102843.91;5052182;28;20028;-68
2021/03/02 02:23:39;;;;;;;112.55;50.70;;;;;;;7.12;100.00;102856.50;5070223;28;20494;-67
2021/03/02 02:26:27;;;;;;;108.05;49.45;;;;;;;7.10;100.00;102847.66;5070065;28;20041;-68
2021/03/02 02:28:55;;;;;;;109.68;51.50;;;;;;;7.09;100.00;102840.50;5053197;28;20063;-67
2021/03/02 02:31:22;;;;;;;114.30;50.17;;;;;;;7.08;100.00;102850.53;5070129;28;20037;-68
2021/03/02 02:33:50;;;;;;;107.68;49.05;;;;;;;7.06;100.00;102846.28;5069882;28;20532;-68
2021/03/02 02:36:17;;;;;;;117.50;50.35;;;;;;;7.05;100.00;102855.47;5070149;28;20123;-67
2021/03/02 02:38:47;;;;;;;113.25;50.33;;;;;;;7.03;100.00;102846.63;5070289;28;20064;-67
2021/03/02 02:41:15;;;;;;;111.07;48.50;;;;;;;7.01;100.00;102852.25;5069812;28;20075;-67
2021/03/02 02:43:42;;;;;;;112.68;49.88;;;;;;;7.01;100.00;102859.56;5070083;28;20080;-67
2021/03/02 02:46:08;;;;;;;113.75;49.85;;;;;;;6.98;100.00;102854.47;5069981;28;20051;-67
2021/03/02 02:48:34;;;;;;;117.20;49.65;;;;;;;6.95;100.00;102856.50;5051929;28;20032;-67
2021/03/02 02:51:00;;;;;;;110.78;48.85;;;;;;;6.92;100.00;102850.53;5069953;28;20371;-67
2021/03/02 02:53:28;;;;;;;110.20;49.63;;;;;;;6.89;100.00;102843.56;5069942;28;20036;-67
2021/03/02 02:55:58;;;;;;;110.28;49.95;;;;;;;6.86;100.00;102852.06;5071542;28;20040;-66
2021/03/02 02:58:49;;;;;;;111.55;51.13;;;;;;;6.83;100.00;102846.97;5073508;28;20104;-67
2021/03/02 03:01:15;;;;;;;113.75;49.30;;;;;;;6.81;100.00;102846.28;5073530;28;20085;-68
2021/03/02 03:03:45;;;;;;;121.07;51.40;;;;;;;6.78;100.00;102849.34;5073130;28;20071;-68
2021/03/02 03:06:16;;;;;;;111.25;47.42;;;;;;;6.76;100.00;102848.66;5073407;28;20032;-68
2021/03/02 03:08:48;;;;;;;110.32;46.90;;;;;;;6.76;100.00;102845.94;5073359;28;20093;-67
2021/03/02 03:11:17;;;;;;;121.38;51.13;;;;;;;6.75;100.00;102843.38;5072998;28;20039;-67
2021/03/02 03:13:46;;;;;;;120.65;51.50;;;;;;;6.74;100.00;102839.81;5073252;28;20056;-67
2021/03/02 03:16:13;;;;;;;123.38;53.35;;;;;;;6.73;100.00;102835.41;5073316;28;20028;-68
2021/03/02 03:18:46;;;;;;;119.63;51.65;;;;;;;6.73;100.00;102835.41;5054968;28;20032;-67
2021/03/02 03:21:13;;;;;;;118.82;49.65;;;;;;;6.73;100.00;102829.97;5073215;28;20033;-67
2021/03/02 03:23:41;;;;;;;110.00;48.88;;;;;;;6.71;100.00;102833.88;5072938;28;20486;-67
2021/03/02 03:26:09;;;;;;;118.78;51.03;;;;;;;6.68;100.00;102831.50;5072719;28;20032;-67
2021/03/02 03:28:35;;;;;;;120.18;48.85;;;;;;;6.68;100.00;102835.06;5072957;28;20066;-67
2021/03/02 03:31:01;;;;;;;117.88;50.60;;;;;;;6.66;100.00;102828.97;5072926;28;20036;-67
2021/03/02 03:33:28;;;;;;;120.95;51.65;;;;;;;6.66;100.00;102828.97;5072697;28;20040;-68
2021/03/02 03:35:55;;;;;;;121.35;52.13;;;;;;;6.66;100.00;102828.97;5072752;28;20036;-67
2021/03/02 03:38:20;;;;;;;124.60;51.67;;;;;;;6.65;100.00;102821.84;5054789;28;20032;-67
2021/03/02 03:40:46;;;;;;;118.57;51.42;;;;;;;6.63;100.00;102827.44;5072415;28;20122;-67
2021/03/02 03:43:12;;;;;;;119.45;53.75;;;;;;;6.62;100.00;102811.31;5072651;28;20444;-67
2021/03/02 03:45:37;;;;;;;112.47;49.75;;;;;;;6.62;100.00;102816.75;5072613;28;20446;-67
2021/03/02 03:48:03;;;;;;;116.32;49.90;;;;;;;6.62;100.00;102820.31;5072480;28;20391;-67
2021/03/02 03:50:29;;;;;;;130.30;50.92;;;;;;;6.61;100.00;102809.63;5054514;28;20033;-68
2021/03/02 03:53:00;;;;;;;119.07;48.75;;;;;;;6.59;100.00;102817.06;5072160;28;20497;-68
2021/03/02 03:55:48;;;;;;;116.00;50.80;;;;;;;6.57;100.00;102808.22;5072318;28;20024;-67
2021/03/02 03:58:22;;;;;;;118.35;50.55;;;;;;;6.55;100.00;102811.13;5072194;28;20032;-67
2021/03/02 04:00:50;;;;;;;125.03;52.17;;;;;;;6.53;100.00;102813.16;5072383;28;20090;-67
2021/03/02 04:03:18;;;;;;;122.88;50.75;;;;;;;6.53;100.00;102815.03;5072013;28;20284;-68
2021/03/02 04:05:45;;;;;;;118.82;52.22;;;;;;;6.51;100.00;102814.34;5053973;28;20372;-67
2021/03/02 04:08:11;;;;;;;118.40;50.08;;;;;;;6.50;100.00;102809.94;5072205;28;20036;-68
2021/03/02 04:10:37;;;;;;;124.80;50.40;;;;;;;6.49;100.00;102816.38;5072182;28;20128;-67
2021/03/02 04:13:09;;;;;;;121.80;52.80;;;;;;;6.47;100.00;102813.84;5054219;28;20044;-67
2021/03/02 04:15:36;;;;;;;126.32;53.25;;;;;;;6.46;100.00;102817.56;5072022;28;20028;-67
2021/03/02 04:18:02;;;;;;;119.25;50.53;;;;;;;6.46;100.00;102816.72;5054016;28;20064;-67
2021/03/02 04:20:28;;;;;;;116.10;50.47;;;;;;;6.43;100.00;102817.91;5072085;28;20029;-67
2021/03/02 04:22:56;;;;;;;118.80;51.75;;;;;;;6.43;100.00;102817.06;5071796;28;20064;-67
2021/03/02 04:25:22;;;;;;;120.68;50.35;;;;;;;6.41;100.00;102810.91;5071592;28;20101;-67
2021/03/02 04:27:47;;;;;;;116.07;49.03;;;;;;;6.40;100.00;102811.94;5071958;28;20032;-67
2021/03/02 04:30:14;;;;;;;123.72;52.78;;;;;;;6.38;100.00;102819.41;5071592;28;20490;-67
2021/03/02 04:32:39;;;;;;;119.45;51.38;;;;;;;6.36;100.00;102811.41;5053582;28;20454;-67
2021/03/02 04:35:06;;;;;;;119.95;50.40;;;;;;;6.35;100.00;102812.44;5053806;28;20483;-67
2021/03/02 04:37:31;;;;;;;128.02;50.90;;;;;;;6.33;100.00;102806.31;5071773;28;20437;-68
2021/03/02 04:39:57;;;;;;;120.85;51.20;;;;;;;6.31;100.00;102798.34;5071300;28;20033;-67
2021/03/02 04:42:22;;;;;;;131.75;51.63;;;;;;;6.28;100.00;102806.84;5071330;28;20132;-67
2021/03/02 04:44:48;;;;;;;129.35;51.58;;;;;;;6.27;100.00;102802.44;5071474;28;20608;-67
2021/03/02 04:47:15;;;;;;;126.43;51.78;;;;;;;6.28;100.00;102814.13;5071206;28;20147;-67
2021/03/02 04:49:40;;;;;;;125.47;50.92;;;;;;;6.26;100.00;102806.16;5071394;28;20433;-67
2021/03/02 04:52:06;;;;;;;130.45;51.60;;;;;;;6.25;100.00;102796.31;5053515;28;20086;-68
2021/03/02 04:54:31;;;;;;;137.55;54.63;;;;;;;6.23;100.00;102806.47;5071103;28;20055;-67
2021/03/02 04:56:57;;;;;;;125.85;50.80;;;;;;;6.22;100.00;102802.06;5071565;28;20071;-67
2021/03/02 04:59:23;;;;;;;128.00;53.83;;;;;;;6.21;100.00;102804.94;5053226;28;20043;-67
2021/03/02 05:01:49;;;;;;;130.75;52.92;;;;;;;6.20;100.00;102804.09;5070830;28;20028;-67
2021/03/02 05:04:14;;;;;;;135.45;54.78;;;;;;;6.19;100.00;102815.09;5071063;28;20089;-67
2021/03/02 05:06:40;;;;;;;139.20;54.55;;;;;;;6.17;100.00;102804.41;5070905;28;20552;-67
2021/03/02 05:09:05;;;;;;;127.55;49.83;;;;;;;6.18;100.00;102807.97;5070988;28;20482;-67
2021/03/02 05:11:31;;;;;;;134.98;52.35;;;;;;;6.17;100.00;102818.00;5070956;28;20142;-67
2021/03/02 05:13:57;;;;;;;144.02;54.05;;;;;;;6.16;100.00;102807.31;5070911;28;20039;-67
2021/03/02 05:16:22;;;;;;;140.43;53.50;;;;;;;6.16;100.00;102813.56;5070790;28;20105;-67
2021/03/02 05:18:48;;;;;;;142.82;53.45;;;;;;;6.14;100.00;102810.19;5070240;28;20040;-67
2021/03/02 05:21:14;;;;;;;135.82;54.78;;;;;;;6.14;100.00;102818.31;5070866;28;20024;-68
2021/03/02 05:23:40;;;;;;;141.07;53.90;;;;;;;6.12;100.00;102798.66;5052757;28;20490;-67
2021/03/02 05:26:05;;;;;;;137.77;54.28;;;;;;;6.11;100.00;102813.22;5070726;28;20044;-67
2021/03/02 05:28:32;;;;;;;138.80;52.25;;;;;;;6.11;100.00;102807.81;5070810;28;20036;-67
2021/03/02 05:30:57;;;;;;;138.15;52.85;;;;;;;6.10;100.00;102808.81;5070539;28;20082;-67
2021/03/02 05:33:23;;;;;;;145.07;53.42;;;;;;;6.08;100.00;102813.56;5070796;28;20441;-67
2021/03/02 05:35:49;;;;;;;148.90;53.97;;;;;;;6.07;100.00;102806.41;5070711;28;20059;-67
2021/03/02 05:38:15;;;;;;;139.57;54.83;;;;;;;6.05;100.00;102813.88;5070698;28;20083;-68
2021/03/02 05:40:41;;;;;;;138.55;57.70;;;;;;;6.03;100.00;102807.75;5070393;28;20116;-67
2021/03/02 05:43:08;;;;;;;132.90;54.50;;;;;;;6.01;100.00;102821.47;5070713;28;20036;-68
2021/03/02 05:45:35;;;;;;;135.30;54.28;;;;;;;5.99;100.00;102806.38;5070905;28;20040;-67
2021/03/02 05:48:01;;;;;;;144.32;56.15;;;;;;;5.96;100.00;102815.72;5070547;28;20041;-68
2021/03/02 05:50:26;;;;;;;138.07;54.53;;;;;;;5.96;100.00;102814.88;5070589;28;20536;-67
2021/03/02 05:52:55;;;;;;;150.32;52.72;;;;;;;5.95;100.00;102815.88;5070851;28;20041;-67
2021/03/02 05:55:21;;;;;;;153.38;55.90;;;;;;;5.93;100.00;102817.91;5070504;28;20044;-67
2021/03/02 05:57:48;;;;;;;141.27;54.90;;;;;;;5.91;100.00;102823.50;5070530;28;20602;-67
2021/03/02 06:00:15;;;;;;;151.85;56.60;;;;;;;5.89;100.00;102822.75;5070487;28;20089;-67
2021/03/02 06:02:41;;;;;;;150.23;54.97;;;;;;;5.87;100.00;102822.06;5052426;28;20131;-68
2021/03/02 06:05:08;;;;;;;143.73;53.70;;;;;;;5.86;100.00;102833.94;5070638;28;20111;-67
2021/03/02 06:07:33;;;;;;;151.82;54.80;;;;;;;5.84;100.00;102832.41;5070418;28;20051;-67
2021/03/02 06:09:59;;;;;;;140.18;54.28;;;;;;;5.82;100.00;102829.84;5070243;28;20063;-66
2021/03/02 06:12:25;;;;;;;144.05;54.15;;;;;;;5.82;100.00;102823.56;5070437;28;20045;-67
2021/03/02 06:15:05;;;;;;;143.13;56.08;;;;;;;5.79;100.00;102840.19;5070369;28;20098;-67
2021/03/02 06:17:31;;;;;;;146.48;53.10;;;;;;;5.79;100.00;102832.03;5070227;28;20029;-67
2021/03/02 06:19:56;;;;;;;137.68;52.90;;;;;;;5.77;100.00;102836.78;5070467;28;20051;-66
2021/03/02 06:22:36;;;;;;;144.93;53.38;;;;;;;5.75;100.00;102835.09;5070361;28;20044;-67
2021/03/02 06:25:04;;;;;;;143.50;51.85;;;;;;;5.74;100.00;102838.81;5070156;28;20394;-67
2021/03/02 06:27:31;;;;;;;143.13;53.92;;;;;;;5.72;100.00;102840.81;5070354;28;20035;-67
2021/03/02 06:30:26;;;;;;;132.38;52.97;;;;;;;5.70;100.00;102842.81;5072194;28;20493;-68
2021/03/02 06:32:54;;;;;;;146.57;54.47;;;;;;;5.70;100.00;102842.81;5056599;28;20075;-67
2021/03/02 06:35:43;;;;;;;142.15;53.80;;;;;;;5.67;100.00;102837.72;5073880;28;20028;-67
2021/03/02 06:38:09;;;;;;;140.05;52.80;;;;;;;5.66;100.00;102841.47;5073909;28;20355;-67
2021/03/02 06:40:43;;;;;;;140.23;53.97;;;;;;;5.65;100.00;102839.75;5073765;28;20377;-67
2021/03/02 06:43:37;;;;;;;145.30;55.27;;;;;;;5.61;100.00;102843.81;5074031;28;20039;-67
2021/03/02 06:46:08;;;;;;;149.50;55.47;;;;;;;5.61;100.00;102843.81;5073820;28;20091;-67
2021/03/02 06:48:49;;;;;;;144.30;56.53;;;;;;;5.59;100.00;102845.84;5073932;28;20461;-67
2021/03/02 06:51:32;;;;;;;151.82;56.53;;;;;;;5.58;100.00;102833.28;5073894;28;20067;-67
2021/03/02 06:54:05;;;;;;;151.07;57.50;;;;;;;5.58;100.00;102849.56;5073746;28;20413;-68
2021/03/02 06:56:31;;;;;;;147.82;56.78;;;;;;;5.57;100.00;102847.84;5073738;28;20398;-68
2021/03/02 06:59:16;;;;;;;147.43;56.80;;;;;;;5.56;100.00;102851.56;5073746;28;20040;-67
2021/03/02 07:01:44;;;;;;;143.13;54.10;;;;;;;5.55;100.00;102841.72;5073653;28;20151;-66
2021/03/02 07:04:15;;;;;;;150.70;57.75;;;;;;;5.54;100.00;102853.56;5073516;28;20038;-68
2021/03/02 07:06:43;;;;;;;143.93;56.90;;;;;;;5.56;100.00;102857.00;5073399;28;20040;-67
2021/03/02 07:09:10;;;;;;;149.45;57.97;;;;;;;5.54;100.00;102859.00;5073334;28;20046;-67
2021/03/02 07:11:36;;;;;;;143.57;54.15;;;;;;;5.55;100.00;102860.69;5055411;28;20037;-67
2021/03/02 07:14:05;;;;;;;151.02;56.63;;;;;;;5.55;100.00;102863.41;5073445;28;20032;-68
2021/03/02 07:16:33;;;;;;;138.82;57.83;;;;;;;5.53;100.00;102878.97;5055405;28;20132;-67
2021/03/02 07:19:02;;;;;;;149.90;57.05;;;;;;;5.53;100.00;102875.41;5073305;28;20051;-67
2021/03/02 07:21:34;;;;;;;156.50;59.20;;;;;;;5.53;100.00;102888.97;5073647;28;20174;-67
2021/03/02 07:24:03;;;;;;;155.05;58.97;;;;;;;5.52;100.00;102890.84;5073132;28;20403;-68
2021/03/02 07:26:31;;;;;;;141.82;56.05;;;;;;;5.52;100.00;102888.13;5073256;28;20037;-66
2021/03/02 07:28:57;;;;;;;153.13;56.00;;;;;;;5.53;100.00;102895.25;5073176;28;20082;-67
2021/03/02 07:31:23;;;;;;;150.48;57.78;;;;;;;5.54;100.00;102905.06;5072951;28;20502;-67
2021/03/02 07:33:50;;;;;;;145.73;55.90;;;;;;;5.53;100.00;102895.25;5055223;28;20044;-67
2021/03/02 07:36:16;;;;;;;140.95;54.67;;;;;;;5.54;100.00;102902.38;5073124;28;20048;-67
2021/03/02 07:38:42;;;;;;;145.95;55.22;;;;;;;5.56;100.00;102899.53;5072858;28;20041;-67
2021/03/02 07:41:07;;;;;;;144.65;55.47;;;;;;;5.55;100.00;102903.22;5072247;28;20044;-68
2021/03/02 07:43:35;;;;;;;147.35;55.97;;;;;;;5.56;100.00;102911.22;5072971;28;20415;-67
2021/03/02 07:46:22;;;;;;;150.65;57.40;;;;;;;5.56;100.00;102915.78;5072703;28;20478;-68
2021/03/02 07:48:48;;;;;;;145.05;55.03;;;;;;;5.58;100.00;102925.47;5072784;28;20039;-67
2021/03/02 07:51:16;;;;;;;142.27;55.97;;;;;;;5.59;100.00;102927.16;5072702;28;20048;-67
2021/03/02 07:53:43;;;;;;;150.35;58.53;;;;;;;5.61;100.00;102930.56;5072345;28;20029;-67
2021/03/02 07:56:11;;;;;;;149.98;54.58;;;;;;;5.62;100.00;102948.53;5072497;28;20036;-68
2021/03/02 07:58:37;;;;;;;151.65;56.67;;;;;;;5.66;100.00;102944.47;5072384;28;20082;-67
2021/03/02 08:01:22;;;;;;;146.52;56.75;;;;;;;5.67;100.00;102946.19;5072150;28;20044;-67
2021/03/02 08:03:49;;;;;;;148.60;55.08;;;;;;;5.70;100.00;102945.84;5072115;28;20032;-67
2021/03/02 08:06:20;;;;;;;140.75;58.03;;;;;;;5.72;100.00;102946.53;5072228;28;20057;-67
2021/03/02 08:08:46;;;;;;;146.85;56.65;;;;;;;5.74;100.00;102947.28;5072580;28;20071;-67
2021/03/02 08:11:33;;;;;;;146.32;56.50;;;;;;;5.75;100.00;102959.81;5071953;28;20051;-67
2021/03/02 08:14:01;;;;;;;159.68;58.78;;;;;;;5.78;100.00;102960.50;5072158;28;20036;-67
2021/03/02 08:16:59;;;;;;;152.48;56.28;;;;;;;5.80;100.00;102956.63;5072084;28;20060;-67
2021/03/02 08:19:37;;;;;;;146.40;55.65;;;;;;;5.79;100.00;102946.78;5055933;28;20529;-67
2021/03/02 08:22:26;;;;;;;149.82;55.97;;;;;;;5.83;100.00;102960.88;5071793;28;20055;-67
2021/03/02 08:24:53;;;;;;;137.65;55.97;;;;;;;5.84;100.00;102970.72;5071797;28;20551;-67
2021/03/02 08:27:49;;;;;;;143.05;55.58;;;;;;;5.88;100.00;102964.78;5071625;28;20078;-67
2021/03/02 08:30:33;;;;;;;142.27;57.15;;;;;;;5.92;100.00;102960.81;5071933;28;20032;-67
2021/03/02 08:33:10;;;;;;;149.00;55.75;;;;;;;5.93;100.00;102957.09;5071720;28;20082;-67
2021/03/02 08:35:38;;;;;;;137.68;53.83;;;;;;;5.99;100.00;102961.00;5071877;28;20032;-67
2021/03/02 08:38:09;;;;;;;137.27;56.55;;;;;;;6.04;100.00;102958.66;5071413;28;20035;-68
2021/03/02 08:40:34;;;;;;;140.02;53.05;;;;;;;6.07;100.00;102982.75;5071210;28;20032;-67
2021/03/02 08:43:12;;;;;;;145.13;54.42;;;;;;;6.09;100.00;102972.63;5071334;28;20497;-67
2021/03/02 08:45:40;;;;;;;136.85;55.55;;;;;;;6.09;100.00;102974.47;5071232;28;20036;-67
2021/03/02 08:48:13;;;;;;;136.88;52.85;;;;;;;6.11;100.00;102973.31;5071531;28;20036;-68
2021/03/02 08:50:39;;;;;;;140.70;55.55;;;;;;;6.13;100.00;102979.41;5071163;28;20532;-67
2021/03/02 08:53:24;;;;;;;132.38;51.55;;;;;;;6.14;100.00;102977.56;5052311;28;20427;-68
2021/03/02 08:55:49;;;;;;;140.25;54.10;;;;;;;6.16;100.00;102980.94;5071290;28;20033;-68
2021/03/02 08:58:15;;;;;;;128.52;51.63;;;;;;;6.17;100.00;102983.50;5071085;28;20509;-67
2021/03/02 09:00:41;;;;;;;130.35;53.40;;;;;;;6.20;100.00;102985.88;5070506;28;20047;-68
2021/03/02 09:03:07;;;;;;;127.38;52.30;;;;;;;6.24;100.00;102981.84;5068405;28;20119;-65
2021/03/02 09:05:33;;;;;;;127.97;52.50;;;;;;;6.29;100.00;102993.06;5070064;28;20127;-66
2021/03/02 09:08:08;;;;;;;133.35;52.50;;;;;;;6.38;100.00;102998.53;5052508;28;20039;-66
2021/03/02 09:10:35;;;;;;;137.23;53.50;;;;;;;6.44;100.00;102993.34;5070103;28;20047;-69
2021/03/02 09:13:06;;;;;;;131.13;51.53;;;;;;;6.48;100.00;102974.84;5052063;28;20483;-68
2021/03/02 09:15:36;;;;;;;131.95;51.22;;;;;;;6.53;100.00;102973.34;5070514;28;20079;-68
2021/03/02 09:18:17;;;;;;;128.75;53.35;;;;;;;6.59;100.00;102974.53;5070781;28;20039;-68
2021/03/02 09:20:56;;;;;;;128.88;50.95;;;;;;;6.62;100.00;102976.94;5070453;28;20056;-68
2021/03/02 09:23:25;;;;;;;125.03;50.20;;;;;;;6.65;100.00;102971.19;5070578;28;20043;-69
2021/03/02 09:25:51;;;;;;;120.18;49.45;;;;;;;6.69;100.00;102964.41;5070611;28;20035;-69
2021/03/02 09:28:20;;;;;;;131.50;52.80;;;;;;;6.74;100.00;102953.88;5070620;28;20041;-68
2021/03/02 09:30:46;;;;;;;132.02;50.88;;;;;;;6.77;100.00;102961.72;5069605;28;20056;-67
2021/03/02 09:33:13;;;;;;;127.82;51.03;;;;;;;6.79;100.00;102959.69;5070022;28;20041;-66
2021/03/02 09:35:40;;;;;;;126.57;50.50;;;;;;;6.85;100.00;102964.47;5069277;28;20036;-65
2021/03/02 09:38:06;;;;;;;119.18;49.15;;;;;;;6.90;100.00;102962.09;5069987;28;20497;-65
2021/03/02 09:40:42;;;;;;;126.00;51.00;;;;;;;6.98;100.00;102955.00;5069675;28;20029;-65
2021/03/02 09:43:09;;;;;;;114.28;49.30;;;;;;;7.03;100.00;102949.88;5069574;28;20085;-65
2021/03/02 09:45:34;;;;;;;129.88;50.53;;;;;;;7.07;100.00;102951.25;5069905;28;20028;-68
2021/03/02 09:48:06;;;;;;;114.10;48.03;;;;;;;7.11;100.00;102952.59;5070132;28;20047;-65
2021/03/02 09:50:38;;;;;;;121.68;49.95;;;;;;;7.16;100.00;102955.69;5070081;28;20386;-66
2021/03/02 09:53:15;;;;;;;127.45;51.22;;;;;;;7.22;100.00;102960.44;5070021;28;20051;-64
2021/03/02 09:55:42;;;;;;;123.35;51.42;;;;;;;7.27;100.00;102958.06;5069607;28;20052;-68
2021/03/02 09:58:17;;;;;;;127.82;50.40;;;;;;;7.33;100.00;102962.84;5069927;28;20036;-62
2021/03/02 10:00:46;;;;;;;116.43;46.88;;;;;;;7.40;100.00;102961.13;5070347;28;20028;-66
2021/03/02 10:03:12;;;;;;;116.30;49.47;;;;;;;7.46;100.00;102952.31;5057699;28;20041;-68
2021/03/02 10:05:39;;;;;;;111.97;47.70;;;;;;;7.53;100.00;102945.19;5054856;28;20032;-68
2021/03/02 10:08:20;;;;;;;117.32;49.22;;;;;;;7.58;100.00;102952.81;5074355;28;20036;-68
2021/03/02 10:10:46;;;;;;;115.22;48.95;;;;;;;7.66;100.00;102957.41;5074355;28;20044;-68
2021/03/02 10:13:20;;;;;;;112.13;48.67;;;;;;;7.72;100.00;102956.72;5074058;28;20044;-67
2021/03/02 10:15:45;;;;;;;115.35;46.88;;;;;;;7.77;100.00;102960.63;5056342;28;20029;-67
2021/03/02 10:18:26;;;;;;;105.50;45.13;;;;;;;7.84;100.00;102960.78;5074091;28;20501;-66
2021/03/02 10:21:06;;;;;;;108.93;46.00;;;;;;;7.91;100.00;102961.78;5074066;28;20039;-69
2021/03/02 10:23:32;;;;;;;110.78;49.00;;;;;;;7.94;100.00;102953.28;5073930;28;20032;-67
2021/03/02 10:25:59;;;;;;;107.90;46.47;;;;;;;7.99;100.00;102953.63;5072826;28;20039;-65
2021/03/02 10:28:32;;;;;;;114.63;48.50;;;;;;;8.07;100.00;102959.03;5073352;28;20448;-65
2021/03/02 10:30:59;;;;;;;113.18;50.35;;;;;;;8.12;100.00;102953.91;5072667;28;20082;-64
2021/03/02 10:33:25;;;;;;;114.50;49.97;;;;;;;8.24;100.00;102945.38;5072023;28;20482;-65
2021/03/02 10:35:50;;;;;;;115.18;50.80;;;;;;;8.35;100.00;102953.22;5073299;28;20039;-64
2021/03/02 10:38:16;;;;;;;108.65;46.80;;;;;;;8.40;100.00;102945.34;5073389;28;20036;-63
2021/03/02 10:40:42;;;;;;;107.38;47.22;;;;;;;8.46;100.00;102950.09;5073621;28;20132;-66
2021/03/02 10:43:08;;;;;;;111.50;46.70;;;;;;;8.51;100.00;102942.25;5073536;28;20475;-64
2021/03/02 10:45:34;;;;;;;98.45;44.10;;;;;;;8.57;100.00;102946.97;5073742;28;20047;-65
2021/03/02 10:48:00;;;;;;;96.65;45.42;;;;;;;8.63;100.00;102923.63;5073679;28;20560;-64
2021/03/02 10:50:26;;;;;;;106.88;44.85;;;;;;;8.70;100.00;102930.94;5073237;28;20052;-63
2021/03/02 10:52:54;;;;;;;96.30;45.33;;;;;;;8.77;100.00;102931.88;5073499;28;20040;-64
2021/03/02 10:55:20;;;;;;;106.47;44.58;;;;;;;8.85;100.00;102921.97;5073557;28;20403;-63
2021/03/02 10:57:46;;;;;;;103.57;44.92;;;;;;;8.94;100.00;102926.34;5073149;28;20513;-63
2021/03/02 11:00:12;;;;;;;93.40;43.47;;;;;;;9.03;100.00;102925.28;5073318;28;20040;-65
2021/03/02 11:02:38;;;;;;;99.70;44.67;;;;;;;9.12;100.00;102924.16;5073598;28;20364;-64
2021/03/02 11:05:06;;;;;;;93.15;41.70;;;;;;;9.24;100.00;102916.44;5073263;28;20044;-63
2021/03/02 11:07:32;;;;;;;89.22;41.95;;;;;;;9.34;100.00;102917.00;5073378;28;20407;-64
2021/03/02 11:09:57;;;;;;;91.85;41.65;;;;;;;9.44;100.00;102911.31;5073138;28;20475;-65